createdAt,value
2022-11-21T00:02:18.879Z,73.34
2022-11-21T00:04:47.207Z,74.20
2022-11-21T00:07:15.223Z,74.44
2022-11-21T00:09:43.618Z,74.23
2022-11-21T00:12:12.140Z,75.06
2022-11-21T00:14:40.440Z,74.81
2022-11-21T00:17:08.507Z,74.21
2022-11-21T00:19:36.797Z,73.98
2022-11-21T00:22:04.838Z,73.69
2022-11-21T00:24:33.707Z,73.76
2022-11-21T00:27:01.720Z,73.53
2022-11-21T00:29:30.659Z,74.04
2022-11-21T00:31:59.306Z,75.90
2022-11-21T00:34:28.083Z,76.50
2022-11-21T00:36:56.239Z,76.57
2022-11-21T00:39:24.578Z,76.06
2022-11-21T00:41:52.559Z,75.35
2022-11-21T00:44:20.867Z,75.21
2022-11-21T00:46:48.971Z,75.41
2022-11-21T00:49:18.058Z,75.95
2022-11-21T00:51:46.106Z,75.39
2022-11-21T00:54:16.476Z,76.17
2022-11-21T00:56:44.448Z,76.80
2022-11-21T00:59:12.767Z,76.70
2022-11-21T01:01:40.845Z,76.92
2022-11-21T01:04:09.246Z,76.72
2022-11-21T01:06:40.615Z,76.23
2022-11-21T01:09:09.017Z,76.29
2022-11-21T01:11:37.137Z,75.75
2022-11-21T01:14:05.718Z,75.73
2022-11-21T01:16:34.217Z,76.55
2022-11-21T01:19:02.595Z,76.23
2022-11-21T01:21:32.198Z,76.42
2022-11-21T01:24:03.037Z,77.00
2022-11-21T01:26:33.476Z,77.62
2022-11-21T01:29:01.780Z,77.17
2022-11-21T01:31:32.438Z,76.92
2022-11-21T01:34:01.772Z,77.55
2022-11-21T01:36:32.753Z,76.52
2022-11-21T01:39:04.113Z,76.87
2022-11-21T01:41:38.446Z,76.95
2022-11-21T01:44:21.956Z,78.10
2022-11-21T01:46:51.972Z,77.99
2022-11-21T01:49:32.860Z,77.78
2022-11-21T01:52:12.245Z,77.62
2022-11-21T01:54:58.714Z,77.96
2022-11-21T01:57:38.412Z,78.09
2022-11-21T02:00:11.842Z,77.69
2022-11-21T02:02:47.193Z,77.86
2022-11-21T02:05:24.302Z,77.88
2022-11-21T02:07:57.607Z,78.40
2022-11-21T02:10:27.972Z,78.64
2022-11-21T02:12:58.672Z,77.96
2022-11-21T02:15:29.483Z,78.68
2022-11-21T02:17:57.472Z,78.90
2022-11-21T02:20:28.911Z,79.15
2022-11-21T02:23:14.223Z,78.52
2022-11-21T02:25:43.832Z,77.76
2022-11-21T02:28:17.162Z,78.71
2022-11-21T02:30:47.213Z,78.51
2022-11-21T02:33:16.114Z,77.54
2022-11-21T02:35:45.621Z,79.41
2022-11-21T02:38:31.240Z,79.59
2022-11-21T02:41:07.164Z,79.40
2022-11-21T02:43:47.036Z,79.01
2022-11-21T02:46:15.345Z,79.74
2022-11-21T02:48:43.964Z,79.15
2022-11-21T02:51:12.182Z,79.27
2022-11-21T02:53:40.098Z,78.97
2022-11-21T02:56:08.450Z,78.70
2022-11-21T02:58:37.050Z,79.00
2022-11-21T03:01:06.039Z,78.60
2022-11-21T03:03:34.059Z,78.38
2022-11-21T03:06:02.466Z,77.36
2022-11-21T03:08:30.533Z,76.76
2022-11-21T03:10:58.751Z,77.34
2022-11-21T03:13:27.458Z,77.94
2022-11-21T03:15:55.801Z,77.60
2022-11-21T03:18:24.405Z,77.87
2022-11-21T03:20:53.080Z,78.06
2022-11-21T03:23:21.092Z,78.80
2022-11-21T03:25:51.033Z,79.14
2022-11-21T03:28:19.383Z,78.17
2022-11-21T03:30:47.893Z,77.97
2022-11-21T03:33:15.911Z,78.45
2022-11-21T03:35:44.294Z,78.86
2022-11-21T03:38:12.264Z,78.59
2022-11-21T03:40:40.533Z,77.10
2022-11-21T03:43:08.683Z,78.25
2022-11-21T03:45:38.182Z,77.22
2022-11-21T03:48:06.543Z,77.03
2022-11-21T03:50:34.804Z,76.68
2022-11-21T03:53:02.784Z,77.70
2022-11-21T03:55:31.173Z,78.01
2022-11-21T03:57:59.334Z,77.64
2022-11-21T04:00:27.645Z,77.51
2022-11-21T04:02:55.624Z,78.73
2022-11-21T04:05:25.244Z,79.14
2022-11-21T04:07:54.488Z,78.89
2022-11-21T04:10:22.743Z,79.12
2022-11-21T04:12:50.734Z,79.89
2022-11-21T04:15:20.155Z,79.94
2022-11-21T04:17:48.824Z,79.49
2022-11-21T04:20:17.244Z,79.40
2022-11-21T04:22:45.289Z,78.78
2022-11-21T04:25:14.194Z,79.19
2022-11-21T04:27:42.213Z,78.77
2022-11-21T04:30:11.242Z,78.65
2022-11-21T04:32:39.233Z,78.55
2022-11-21T04:35:09.161Z,78.04
2022-11-21T04:37:39.874Z,77.74
2022-11-21T04:40:08.673Z,78.19
2022-11-21T04:42:36.816Z,77.81
2022-11-21T04:45:06.333Z,77.76
2022-11-21T04:47:40.924Z,76.67
2022-11-21T04:50:11.884Z,77.17
2022-11-21T04:52:40.153Z,77.00
2022-11-21T04:55:09.606Z,77.41
2022-11-21T04:57:37.683Z,77.86
2022-11-21T05:00:06.658Z,77.85
2022-11-21T05:02:34.650Z,77.23
2022-11-21T05:05:02.940Z,76.84
2022-11-21T05:07:30.919Z,75.98
2022-11-21T05:09:59.315Z,75.65
2022-11-21T05:12:45.844Z,75.47
2022-11-21T05:15:14.123Z,76.01
2022-11-21T05:17:42.156Z,75.92
2022-11-21T05:20:11.653Z,75.84
2022-11-21T05:22:39.704Z,75.88
2022-11-21T05:25:08.435Z,75.71
2022-11-21T05:27:36.382Z,76.48
2022-11-21T05:30:05.785Z,75.09
2022-11-21T05:32:33.793Z,75.32
2022-11-21T05:35:02.353Z,75.84
2022-11-21T05:37:31.443Z,75.57
2022-11-21T05:39:59.994Z,75.83
2022-11-21T05:42:47.484Z,76.36
2022-11-21T05:45:15.936Z,77.03
2022-11-21T05:47:43.926Z,76.76
2022-11-21T05:50:13.487Z,76.50
2022-11-21T05:52:41.564Z,76.02
2022-11-21T05:55:09.843Z,74.93
2022-11-21T05:57:37.823Z,75.79
2022-11-21T06:00:06.856Z,74.90
2022-11-21T06:02:53.692Z,76.16
2022-11-21T06:05:21.972Z,75.75
2022-11-21T06:07:49.927Z,75.68
2022-11-21T06:10:18.272Z,75.42
2022-11-21T06:12:46.274Z,74.73
2022-11-21T06:15:14.625Z,75.31
2022-11-21T06:17:42.593Z,74.37
2022-11-21T06:20:12.133Z,75.89
2022-11-21T06:22:40.174Z,75.50
2022-11-21T06:25:08.823Z,76.24
2022-11-21T06:27:36.779Z,76.66
2022-11-21T06:30:07.534Z,75.52
2022-11-21T06:32:38.975Z,76.22
2022-11-21T06:35:07.841Z,74.62
2022-11-21T06:37:35.875Z,75.24
2022-11-21T06:40:04.565Z,75.30
2022-11-21T06:42:33.903Z,75.52
2022-11-21T06:45:02.244Z,75.75
2022-11-21T06:47:35.236Z,74.43
2022-11-21T06:50:03.892Z,73.09
2022-11-21T06:52:35.816Z,71.63
2022-11-21T06:55:04.414Z,70.83
2022-11-21T06:57:33.225Z,70.03
2022-11-21T07:00:02.280Z,70.39
2022-11-21T07:02:30.335Z,69.41
2022-11-21T07:04:58.764Z,69.39
2022-11-21T07:07:26.851Z,69.20
2022-11-21T07:09:55.343Z,68.58
2022-11-21T07:12:42.114Z,68.40
2022-11-21T07:15:11.234Z,68.52
2022-11-21T07:17:39.337Z,69.39
2022-11-21T07:20:08.294Z,68.12
2022-11-21T07:22:36.474Z,66.39
2022-11-21T07:25:05.144Z,63.35
2022-11-21T07:27:33.336Z,62.08
2022-11-21T07:30:01.643Z,61.57
2022-11-21T07:32:29.788Z,61.35
2022-11-21T07:34:58.123Z,61.99
2022-11-21T07:37:26.233Z,64.89
2022-11-21T07:39:54.715Z,66.55
2022-11-21T07:42:22.693Z,67.81
2022-11-21T07:44:52.305Z,68.74
2022-11-21T07:47:20.385Z,70.22
2022-11-21T07:49:49.905Z,70.57
2022-11-21T07:52:18.013Z,69.67
2022-11-21T07:54:46.373Z,69.24
2022-11-21T07:57:14.364Z,68.96
2022-11-21T07:59:42.933Z,69.57
2022-11-21T08:02:25.583Z,69.82
2022-11-21T08:04:55.346Z,71.19
2022-11-21T08:07:24.853Z,71.07
2022-11-21T08:09:53.265Z,70.50
2022-11-21T08:12:21.364Z,70.96
2022-11-21T08:14:49.680Z,70.40
2022-11-21T08:17:18.790Z,71.37
2022-11-21T08:19:47.233Z,71.30
2022-11-21T08:22:15.233Z,71.73
2022-11-21T08:24:43.563Z,72.96
2022-11-21T08:27:12.214Z,73.52
2022-11-21T08:29:40.524Z,74.34
2022-11-21T08:32:08.644Z,72.74
2022-11-21T08:34:36.998Z,74.15
2022-11-21T08:37:05.245Z,74.43
2022-11-21T08:39:33.535Z,74.94
2022-11-21T08:42:04.544Z,73.97
2022-11-21T08:44:34.859Z,76.28
2022-11-21T08:47:03.072Z,77.53
2022-11-21T08:49:32.634Z,76.33
2022-11-21T08:52:00.637Z,75.00
2022-11-21T08:54:30.437Z,76.15
2022-11-21T08:56:58.753Z,75.38
2022-11-21T08:59:27.148Z,74.46
2022-11-21T09:01:55.431Z,72.87
2022-11-21T09:04:23.877Z,71.05
2022-11-21T09:06:51.884Z,68.99
2022-11-21T09:09:25.065Z,66.89
2022-11-21T09:11:53.775Z,65.64
2022-11-21T09:14:42.475Z,65.02
2022-11-21T09:17:33.079Z,66.43
2022-11-21T09:20:01.591Z,67.45
2022-11-21T09:22:29.676Z,67.43
2022-11-21T09:24:58.034Z,69.31
2022-11-21T09:27:26.043Z,67.84
2022-11-21T09:29:54.533Z,68.54
2022-11-21T09:32:23.286Z,67.91
2022-11-21T09:34:52.745Z,68.00
2022-11-21T09:37:20.722Z,67.45
2022-11-21T09:39:49.164Z,68.58
2022-11-21T09:42:41.372Z,67.31
2022-11-21T09:45:25.269Z,65.24
2022-11-21T09:47:53.962Z,63.57
2022-11-21T09:50:36.103Z,65.14
2022-11-21T09:53:07.872Z,66.83
2022-11-21T09:55:36.072Z,63.51
2022-11-21T09:58:27.081Z,62.32
2022-11-21T10:00:55.661Z,62.48
2022-11-21T10:03:27.652Z,62.87
2022-11-21T10:06:07.414Z,60.39
2022-11-21T10:08:48.332Z,62.11
2022-11-21T10:12:17.293Z,62.41
2022-11-21T10:14:54.322Z,60.02
2022-11-21T10:17:37.692Z,61.30
2022-11-21T10:20:44.021Z,63.43
2022-11-21T10:23:44.612Z,66.65
2022-11-21T10:26:16.374Z,66.31
2022-11-21T10:29:04.703Z,67.03
2022-11-21T10:31:38.522Z,64.54
2022-11-21T11:05:51.848Z,68.73
2022-11-21T12:47:11.987Z,54.12
2022-11-21T13:34:41.302Z,59.12
2022-11-21T14:49:27.576Z,70.36
2022-11-21T16:53:55.813Z,79.00
2022-11-21T17:31:06.621Z,69.90
2022-11-21T18:15:11.046Z,67.93
2022-11-21T20:27:29.335Z,64.13
2022-11-21T20:35:28.684Z,63.45
2022-11-21T20:57:30.562Z,64.47
2022-11-21T21:00:58.179Z,64.79
2022-11-21T21:21:16.822Z,69.93
2022-11-21T22:49:11.777Z,89.45
2022-11-21T23:02:11.528Z,88.76
2022-11-21T23:11:28.686Z,89.47
2022-11-21T23:34:17.232Z,91.00
